Time;durP1;ratioP1;P1;durP2;ratioP2;P2;SDS_P1;SDS_P2;PMS_P1;PMS_P2;Temp;Humidity;BMP_temperature;BMP_pressure;BME280_temperature;BME280_humidity;BME280_pressure;Samples;Min_cycle;Max_cycle;Signal;HPM_P1;HPM_P2
2022/06/27 00:01:33;;;;;;;5.05;1.83;;;21.90;63.70;;;;;;5030155;28;20078;-73
2022/06/27 00:03:58;;;;;;;1.98;1.88;;;22.00;63.90;;;;;;5035566;28;20094;-73
2022/06/27 00:06:24;;;;;;;1.42;1.33;;;22.00;64.70;;;;;;5027297;28;20118;-73
2022/06/27 00:08:50;;;;;;;1.55;1.45;;;22.00;64.00;;;;;;5028294;28;20040;-73
2022/06/27 00:11:16;;;;;;;1.77;1.48;;;22.00;63.90;;;;;;5027638;28;20051;-73
2022/06/27 00:13:42;;;;;;;4.50;1.70;;;22.00;63.90;;;;;;5019339;28;20033;-74
2022/06/27 00:16:07;;;;;;;1.70;1.60;;;22.00;63.90;;;;;;5029838;28;20048;-73
2022/06/27 00:18:33;;;;;;;2.58;1.52;;;21.90;64.00;;;;;;5036772;28;20041;-73
2022/06/27 00:20:58;;;;;;;2.88;1.45;;;21.90;64.20;;;;;;5035293;28;20072;-72
2022/06/27 00:23:24;;;;;;;1.75;1.60;;;21.90;64.30;;;;;;5034148;28;20025;-71
2022/06/27 00:25:49;;;;;;;2.05;1.70;;;21.90;64.30;;;;;;5032980;28;20108;-72
2022/06/27 00:28:15;;;;;;;2.30;1.60;;;21.90;64.40;;;;;;5031948;28;20156;-71
2022/06/27 00:30:41;;;;;;;2.08;1.48;;;21.90;64.60;;;;;;5020166;28;20682;-71
2022/06/27 00:33:07;;;;;;;1.80;1.70;;;21.90;64.60;;;;;;5019476;28;20123;-71
2022/06/27 00:35:32;;;;;;;2.70;1.80;;;21.80;64.40;;;;;;5036283;28;20120;-73
2022/06/27 00:37:58;;;;;;;1.63;1.52;;;21.90;64.50;;;;;;5015904;28;20610;-73
2022/06/27 00:40:23;;;;;;;3.10;2.00;;;21.90;64.50;;;;;;5008599;28;20382;-74
2022/06/27 00:42:49;;;;;;;1.73;1.35;;;21.90;64.40;;;;;;5035827;28;20511;-74
2022/06/27 00:45:14;;;;;;;1.80;1.70;;;21.90;64.40;;;;;;5041442;28;20147;-71
2022/06/27 00:47:40;;;;;;;2.00;1.75;;;21.90;64.40;;;;;;5037449;28;20033;-73
2022/06/27 00:50:06;;;;;;;2.30;2.10;;;21.90;64.60;;;;;;5034676;28;20064;-72
2022/06/27 00:52:32;;;;;;;3.85;2.60;;;21.90;64.60;;;;;;5028226;28;20041;-71
2022/06/27 00:54:57;;;;;;;3.30;2.80;;;21.90;64.60;;;;;;5027285;28;20040;-71
2022/06/27 00:57:23;;;;;;;6.90;3.13;;;21.80;64.80;;;;;;5018374;28;20032;-71
2022/06/27 00:59:48;;;;;;;4.95;3.30;;;21.80;65.00;;;;;;5018411;28;20561;-71
2022/06/27 01:02:14;;;;;;;5.05;3.20;;;21.80;65.30;;;;;;5024680;28;20064;-71
2022/06/27 01:04:39;;;;;;;3.90;3.50;;;21.80;65.40;;;;;;5019391;28;20075;-72
2022/06/27 01:07:06;;;;;;;4.20;3.80;;;21.80;65.40;;;;;;5033125;28;20572;-71
2022/06/27 01:09:32;;;;;;;4.82;3.47;;;21.80;65.50;;;;;;5007558;28;20087;-72
2022/06/27 01:11:57;;;;;;;6.80;4.13;;;21.70;65.60;;;;;;5006115;28;20116;-71
2022/06/27 01:14:24;;;;;;;3.78;3.47;;;21.70;66.10;;;;;;5028728;28;20034;-71
2022/06/27 01:16:49;;;;;;;7.53;4.63;;;21.70;66.30;;;;;;5021421;28;20068;-72
2022/06/27 01:19:16;;;;;;;5.38;4.88;;;21.70;66.30;;;;;;5031148;28;20104;-70
2022/06/27 01:21:49;;;;;;;3.90;3.60;;;21.70;66.30;;;;;;5051027;28;20107;-71
2022/06/27 01:24:15;;;;;;;4.70;4.00;;;21.70;66.40;;;;;;5028787;28;20397;-71
2022/06/27 01:26:42;;;;;;;4.82;4.35;;;21.70;66.10;;;;;;5034603;28;20528;-71
2022/06/27 01:29:07;;;;;;;4.13;3.72;;;21.70;66.20;;;;;;5015383;28;20045;-71
2022/06/27 01:31:34;;;;;;;4.68;3.90;;;21.70;66.40;;;;;;5009152;28;20114;-71
2022/06/27 01:34:00;;;;;;;4.55;3.88;;;21.70;66.40;;;;;;5033109;28;20124;-71
2022/06/27 01:36:44;;;;;;;6.07;4.78;;;21.70;66.50;;;;;;5032634;28;20743;-71
2022/06/27 01:39:11;;;;;;;4.07;3.78;;;21.70;66.60;;;;;;5005595;28;20036;-71
2022/06/27 01:41:42;;;;;;;4.53;4.10;;;21.70;66.70;;;;;;5009585;28;20060;-71
2022/06/27 01:44:08;;;;;;;5.17;4.67;;;21.60;66.90;;;;;;5031228;28;20863;-71
2022/06/27 01:46:41;;;;;;;5.57;4.30;;;21.60;67.20;;;;;;5028483;28;20041;-70
2022/06/27 01:49:07;;;;;;;4.88;4.43;;;21.60;67.50;;;;;;5013129;28;20567;-71
2022/06/27 01:51:32;;;;;;;3.60;3.30;;;21.50;67.30;;;;;;5032319;28;20028;-72
2022/06/27 01:53:58;;;;;;;6.22;4.03;;;21.50;67.30;;;;;;5029809;28;20087;-71
2022/06/27 01:56:23;;;;;;;7.57;4.72;;;21.50;67.30;;;;;;5034038;28;20826;-71
2022/06/27 01:58:51;;;;;;;5.13;4.72;;;21.50;67.40;;;;;;5030724;28;20116;-71
2022/06/27 02:01:17;;;;;;;4.78;4.30;;;21.50;67.70;;;;;;5027128;28;20033;-71
2022/06/27 02:03:42;;;;;;;4.30;3.90;;;21.40;67.60;;;;;;5015285;28;20033;-71
2022/06/27 02:06:08;;;;;;;4.40;4.00;;;21.40;67.70;;;;;;5011986;28;20030;-71
2022/06/27 02:08:33;;;;;;;4.57;4.20;;;21.40;67.70;;;;;;5005212;28;20025;-70
2022/06/27 02:10:59;;;;;;;4.78;4.38;;;21.40;67.70;;;;;;5027436;28;20037;-71
2022/06/27 02:13:24;;;;;;;5.45;4.95;;;21.40;67.80;;;;;;5043170;28;20157;-71
2022/06/27 02:16:04;;;;;;;4.50;4.10;;;21.40;68.10;;;;;;5027205;28;20408;-71
2022/06/27 02:18:30;;;;;;;4.70;4.30;;;21.30;68.50;;;;;;5016248;28;20513;-71
2022/06/27 02:20:56;;;;;;;4.60;4.20;;;21.30;68.20;;;;;;4980644;28;20440;-71
2022/06/27 02:23:21;;;;;;;4.43;4.05;;;21.30;68.30;;;;;;5007035;28;20052;-72
2022/06/27 02:25:47;;;;;;;4.35;3.95;;;21.20;68.60;;;;;;5013775;28;20689;-72
2022/06/27 02:28:13;;;;;;;4.78;4.38;;;21.20;68.60;;;;;;5021817;28;20048;-70
2022/06/27 02:30:38;;;;;;;5.55;4.13;;;21.20;68.70;;;;;;5011813;28;20094;-71
2022/06/27 02:33:04;;;;;;;4.30;3.92;;;21.10;68.70;;;;;;5008147;28;20637;-70
2022/06/27 02:35:29;;;;;;;6.50;4.60;;;21.10;68.80;;;;;;5031185;28;20116;-72
2022/06/27 02:37:55;;;;;;;4.28;3.88;;;21.10;68.90;;;;;;5027492;28;20052;-70
2022/06/27 02:40:20;;;;;;;6.60;3.95;;;21.10;69.30;;;;;;5016118;28;20071;-73
2022/06/27 02:42:46;;;;;;;5.13;4.65;;;21.10;69.20;;;;;;5032803;28;20068;-71
2022/06/27 02:45:12;;;;;;;4.53;4.13;;;21.10;69.10;;;;;;5008380;28;20687;-71
2022/06/27 02:47:38;;;;;;;5.18;4.70;;;21.10;69.40;;;;;;5028421;28;20489;-72
2022/06/27 02:50:03;;;;;;;5.03;4.38;;;21.10;69.50;;;;;;5030354;28;20036;-71
2022/06/27 02:52:35;;;;;;;7.35;5.18;;;21.10;69.80;;;;;;5019844;28;20055;-71
2022/06/27 02:55:09;;;;;;;4.57;4.18;;;21.10;70.40;;;;;;5019504;28;20033;-71
2022/06/27 02:57:43;;;;;;;5.18;3.70;;;21.00;70.60;;;;;;5031403;28;20055;-71
2022/06/27 03:00:08;;;;;;;7.68;4.18;;;21.00;70.40;;;;;;5008095;28;20490;-71
2022/06/27 03:02:36;;;;;;;4.38;3.92;;;21.00;70.30;;;;;;5047280;28;20043;-71
2022/06/27 03:05:01;;;;;;;6.57;4.00;;;21.00;70.20;;;;;;5033468;28;20029;-72
2022/06/27 03:07:27;;;;;;;5.03;4.38;;;21.00;70.30;;;;;;5006552;28;20040;-72
2022/06/27 03:09:52;;;;;;;6.47;5.00;;;21.00;70.40;;;;;;5027713;28;20143;-71
2022/06/27 03:12:18;;;;;;;8.50;4.80;;;20.90;70.70;;;;;;5015948;28;20068;-71
2022/06/27 03:14:43;;;;;;;6.95;4.55;;;20.90;70.90;;;;;;5050386;28;20752;-71
2022/06/27 03:17:09;;;;;;;5.03;4.63;;;20.90;71.20;;;;;;5007226;28;20504;-71
2022/06/27 03:19:34;;;;;;;4.43;3.92;;;20.80;71.50;;;;;;5031079;28;20044;-71
2022/06/27 03:22:00;;;;;;;4.55;4.03;;;20.70;71.70;;;;;;5016010;28;20700;-71
2022/06/27 03:24:25;;;;;;;7.10;4.18;;;20.70;71.90;;;;;;5042380;28;20051;-71
2022/06/27 03:26:51;;;;;;;4.90;4.32;;;20.60;72.30;;;;;;5010278;28;20048;-70
2022/06/27 03:29:17;;;;;;;6.38;4.80;;;20.50;72.50;;;;;;5006352;28;20044;-71
2022/06/27 03:31:43;;;;;;;4.50;4.07;;;20.50;72.90;;;;;;4986240;28;20137;-70
2022/06/27 03:34:08;;;;;;;5.57;4.18;;;20.50;73.00;;;;;;5011688;28;20033;-71
2022/06/27 03:36:34;;;;;;;5.55;4.82;;;20.40;73.20;;;;;;5028283;28;20673;-71
2022/06/27 03:38:59;;;;;;;6.60;4.32;;;20.40;73.30;;;;;;5027583;28;20033;-72
2022/06/27 03:41:25;;;;;;;4.53;4.13;;;20.30;73.40;;;;;;5014344;28;20034;-71
2022/06/27 03:43:50;;;;;;;5.03;4.53;;;20.40;73.60;;;;;;5030529;28;20052;-71
2022/06/27 03:46:16;;;;;;;4.97;4.13;;;20.30;73.60;;;;;;5033739;28;20732;-71
2022/06/27 03:51:26;;;;;;;4.78;3.95;;;20.30;74.00;;;;;;5031093;28;20051;-71
2022/06/27 03:53:52;;;;;;;6.53;4.50;;;20.30;73.90;;;;;;5026459;28;20464;-71
2022/06/27 03:56:17;;;;;;;4.57;4.18;;;20.30;74.10;;;;;;5026643;28;20040;-72
2022/06/27 03:58:43;;;;;;;9.15;4.45;;;20.30;74.30;;;;;;5034220;28;20047;-72
2022/06/27 04:01:08;;;;;;;4.07;3.70;;;20.20;74.50;;;;;;5025175;28;20135;-72
2022/06/27 04:03:35;;;;;;;5.30;4.10;;;20.20;74.50;;;;;;5032305;28;20041;-71
2022/06/27 04:06:00;;;;;;;4.55;4.20;;;20.20;74.50;;;;;;5035706;28;20024;-71
2022/06/27 04:08:27;;;;;;;3.92;3.55;;;20.20;74.60;;;;;;5008837;28;20043;-72
2022/06/27 04:10:53;;;;;;;4.55;4.15;;;20.20;74.70;;;;;;5026916;28;20040;-72
2022/06/27 04:13:18;;;;;;;6.25;5.22;;;20.20;74.70;;;;;;5014988;28;20557;-71
2022/06/27 04:15:44;;;;;;;7.10;4.10;;;20.20;74.70;;;;;;5027234;28;20115;-71
2022/06/27 04:18:11;;;;;;;4.03;3.60;;;20.20;74.80;;;;;;5022491;28;20140;-71
2022/06/27 04:20:36;;;;;;;4.05;3.60;;;20.20;74.80;;;;;;5046821;28;20120;-71
2022/06/27 04:23:02;;;;;;;4.50;4.10;;;20.20;74.70;;;;;;5025802;28;20036;-71
2022/06/27 04:25:27;;;;;;;6.05;3.53;;;20.20;74.70;;;;;;5043046;28;20037;-71
2022/06/27 04:27:53;;;;;;;4.68;4.18;;;20.20;75.60;;;;;;5027957;28;20048;-71
2022/06/27 04:30:18;;;;;;;5.60;5.03;;;20.20;74.80;;;;;;5027560;28;20078;-71
2022/06/27 04:32:44;;;;;;;5.35;4.85;;;20.20;74.90;;;;;;5033231;28;20033;-71
2022/06/27 04:35:10;;;;;;;5.15;4.65;;;20.20;75.20;;;;;;5051955;28;20386;-71
2022/06/27 04:37:40;;;;;;;6.97;4.72;;;20.20;75.40;;;;;;5003738;28;20043;-70
2022/06/27 04:40:06;;;;;;;5.70;4.20;;;20.20;75.60;;;;;;5020622;28;20037;-68
2022/06/27 04:42:31;;;;;;;4.78;4.38;;;20.30;75.70;;;;;;5034485;28;20037;-70
2022/06/27 04:44:57;;;;;;;6.22;4.50;;;20.30;75.50;;;;;;5007994;28;20033;-71
2022/06/27 04:47:22;;;;;;;4.35;3.90;;;20.30;75.60;;;;;;5034460;28;20090;-71
2022/06/27 04:49:48;;;;;;;4.72;4.18;;;20.30;75.60;;;;;;5030427;28;20032;-70
2022/06/27 04:52:15;;;;;;;4.43;4.03;;;20.30;75.40;;;;;;5044100;28;20619;-71
2022/06/27 04:54:41;;;;;;;5.40;3.95;;;20.30;75.40;;;;;;5042130;28;20044;-71
2022/06/27 04:57:07;;;;;;;4.35;3.95;;;20.30;75.40;;;;;;5044086;28;20551;-71
2022/06/27 04:59:32;;;;;;;6.32;3.72;;;20.40;75.30;;;;;;5028429;28;20819;-71
2022/06/27 05:01:58;;;;;;;5.55;4.53;;;20.40;75.40;;;;;;5024567;28;20041;-71
2022/06/27 05:04:24;;;;;;;5.28;4.20;;;20.40;75.20;;;;;;5022663;28;20085;-71
2022/06/27 05:06:50;;;;;;;6.57;4.80;;;20.50;75.20;;;;;;5034762;28;20037;-71
2022/06/27 05:09:15;;;;;;;5.35;3.97;;;20.50;75.40;;;;;;5027117;28;20047;-71
2022/06/27 05:11:41;;;;;;;4.35;4.03;;;20.50;75.70;;;;;;5043919;28;20723;-73
2022/06/27 05:14:07;;;;;;;6.72;4.18;;;20.50;75.60;;;;;;5050470;28;20661;-72
2022/06/27 05:16:32;;;;;;;5.40;4.47;;;20.50;75.70;;;;;;5033548;28;20052;-73
2022/06/27 05:18:58;;;;;;;4.97;4.47;;;20.50;75.80;;;;;;5031085;28;20033;-74
2022/06/27 05:21:23;;;;;;;3.97;3.67;;;20.50;76.40;;;;;;5030101;28;20051;-73
2022/06/27 05:23:52;;;;;;;5.65;4.15;;;20.50;75.90;;;;;;5033863;28;20033;-73
2022/06/27 05:26:17;;;;;;;4.70;4.30;;;20.50;75.90;;;;;;5035624;28;20086;-73
2022/06/27 05:28:43;;;;;;;4.22;3.83;;;20.50;75.90;;;;;;5033520;28;20036;-72
2022/06/27 05:31:09;;;;;;;6.30;3.70;;;20.50;76.00;;;;;;5045201;28;20481;-72
2022/06/27 05:33:35;;;;;;;3.78;3.42;;;20.50;76.00;;;;;;5023926;28;20044;-72
2022/06/27 05:36:01;;;;;;;4.50;3.88;;;20.50;76.00;;;;;;5032257;28;20034;-72
2022/06/27 05:38:27;;;;;;;5.07;4.38;;;20.40;76.10;;;;;;5028986;28;20040;-73
2022/06/27 05:40:52;;;;;;;5.18;4.68;;;20.50;76.90;;;;;;5016615;28;20091;-71
2022/06/27 05:43:18;;;;;;;4.82;4.43;;;20.50;76.10;;;;;;5052568;28;20059;-72
2022/06/27 05:45:44;;;;;;;4.13;3.83;;;20.50;76.40;;;;;;5030535;28;20041;-72
2022/06/27 05:48:09;;;;;;;4.72;4.22;;;20.50;76.40;;;;;;5027098;28;20082;-72
2022/06/27 05:50:35;;;;;;;6.35;4.32;;;20.60;76.30;;;;;;5052216;28;20128;-72
2022/06/27 05:53:01;;;;;;;5.50;4.80;;;20.60;76.40;;;;;;5025940;28;20040;-72
2022/06/27 05:55:28;;;;;;;4.75;4.13;;;20.60;76.60;;;;;;5038645;28;20037;-72
2022/06/27 05:57:55;;;;;;;4.90;4.35;;;20.70;76.60;;;;;;5015887;28;20041;-72
2022/06/27 06:00:21;;;;;;;5.38;3.92;;;20.80;76.70;;;;;;5014265;28;20028;-72
2022/06/27 06:02:47;;;;;;;5.63;4.13;;;20.80;76.50;;;;;;5028546;28;20044;-72
2022/06/27 06:05:14;;;;;;;4.05;3.65;;;20.90;76.40;;;;;;5022799;28;20029;-72
2022/06/27 06:07:39;;;;;;;4.90;4.35;;;21.00;76.20;;;;;;5027668;28;20120;-72
2022/06/27 06:10:05;;;;;;;6.15;3.70;;;21.00;75.90;;;;;;5028024;28;20115;-72
2022/06/27 06:12:32;;;;;;;3.88;3.47;;;21.00;75.80;;;;;;5036297;28;20049;-72
2022/06/27 06:15:04;;;;;;;5.53;3.70;;;21.10;75.70;;;;;;5008486;28;20497;-72
2022/06/27 06:17:31;;;;;;;5.28;3.50;;;21.10;75.60;;;;;;5020338;28;20052;-72
2022/06/27 06:19:57;;;;;;;3.63;3.13;;;21.00;75.60;;;;;;5007887;28;20041;-72
2022/06/27 06:22:23;;;;;;;5.00;4.05;;;21.10;75.60;;;;;;5029835;28;20115;-73
2022/06/27 06:24:49;;;;;;;4.28;3.88;;;21.10;75.40;;;;;;5034195;28;20144;-73
2022/06/27 06:27:16;;;;;;;4.65;3.70;;;21.20;75.50;;;;;;5024094;28;20037;-72
2022/06/27 06:29:41;;;;;;;4.43;3.30;;;21.20;75.40;;;;;;5014022;28;20505;-73
2022/06/27 06:32:07;;;;;;;4.45;3.20;;;21.30;75.50;;;;;;5013809;28;20047;-72
2022/06/27 06:34:34;;;;;;;3.63;3.30;;;21.30;75.50;;;;;;5035001;28;20044;-72
2022/06/27 06:36:59;;;;;;;3.17;2.88;;;21.30;75.50;;;;;;5031236;28;20043;-73
2022/06/27 06:39:25;;;;;;;3.17;2.90;;;21.40;75.50;;;;;;5030829;28;20028;-74
2022/06/27 06:41:51;;;;;;;3.58;3.08;;;21.40;75.30;;;;;;5048285;28;20134;-73
2022/06/27 06:44:18;;;;;;;5.68;3.22;;;21.60;75.40;;;;;;5036799;28;20029;-72
2022/06/27 06:46:43;;;;;;;3.33;3.03;;;21.60;75.00;;;;;;5030701;28;20114;-72
2022/06/27 06:49:10;;;;;;;5.70;3.47;;;21.70;74.90;;;;;;5033314;28;20448;-72
2022/06/27 06:51:37;;;;;;;3.95;3.65;;;21.80;74.70;;;;;;5036270;28;20045;-72
2022/06/27 06:54:06;;;;;;;4.40;4.07;;;21.90;74.40;;;;;;5011786;28;20048;-73
2022/06/27 06:56:31;;;;;;;3.65;3.22;;;22.10;74.20;;;;;;5020168;28;20052;-73
2022/06/27 06:59:00;;;;;;;3.70;3.40;;;22.10;73.90;;;;;;5032804;28;20481;-73
2022/06/27 07:01:27;;;;;;;3.92;3.60;;;22.00;73.60;;;;;;5030467;28;20086;-73
2022/06/27 07:03:54;;;;;;;5.18;3.60;;;22.10;73.60;;;;;;4977798;28;20460;-72
2022/06/27 07:06:24;;;;;;;3.70;3.40;;;22.10;73.40;;;;;;5031223;28;20029;-73
2022/06/27 07:08:51;;;;;;;3.97;3.67;;;22.10;73.40;;;;;;5032513;28;20047;-73
2022/06/27 07:11:17;;;;;;;4.25;3.85;;;22.10;73.30;;;;;;5017808;28;20042;-72
2022/06/27 07:13:43;;;;;;;5.10;4.28;;;22.10;73.20;;;;;;5028039;28;20064;-72
2022/06/27 07:16:09;;;;;;;5.57;5.07;;;22.10;73.20;;;;;;5037680;28;20102;-73
2022/06/27 07:18:34;;;;;;;5.13;4.63;;;22.10;73.10;;;;;;5027538;28;20136;-73
2022/06/27 07:21:00;;;;;;;4.97;4.43;;;22.20;73.10;;;;;;5041983;28;20107;-72
2022/06/27 07:23:26;;;;;;;5.32;4.80;;;22.20;73.00;;;;;;5031036;28;20039;-72
2022/06/27 07:25:51;;;;;;;5.45;4.78;;;22.20;72.90;;;;;;5020105;28;20838;-72
2022/06/27 07:28:20;;;;;;;4.70;4.30;;;22.20;72.80;;;;;;5034103;28;20037;-72
2022/06/27 07:30:47;;;;;;;6.18;5.10;;;22.20;72.70;;;;;;5014527;28;20114;-72
2022/06/27 07:33:13;;;;;;;7.25;5.93;;;22.30;72.60;;;;;;5031904;28;20501;-73
2022/06/27 07:35:39;;;;;;;7.65;6.70;;;22.30;72.40;;;;;;5033615;28;20048;-72
2022/06/27 07:38:05;;;;;;;7.15;6.45;;;22.20;72.20;;;;;;5039806;28;20040;-74
2022/06/27 07:40:33;;;;;;;7.38;6.68;;;22.20;72.20;;;;;;5029730;28;20120;-72
2022/06/27 07:42:58;;;;;;;7.43;6.45;;;22.20;72.20;;;;;;5025589;28;20251;-73
2022/06/27 07:45:25;;;;;;;8.43;6.90;;;22.20;72.10;;;;;;5030680;28;20120;-73
2022/06/27 07:47:50;;;;;;;9.40;7.45;;;22.20;71.90;;;;;;5051191;28;20038;-73
2022/06/27 07:53:13;;;;;;;8.32;7.53;;;22.20;71.90;;;;;;5027608;28;20095;-72
2022/06/27 07:55:40;;;;;;;9.35;7.57;;;22.20;71.70;;;;;;5030662;28;20064;-73
2022/06/27 07:58:07;;;;;;;8.10;6.95;;;22.20;71.70;;;;;;5033901;28;20044;-73
2022/06/27 08:00:33;;;;;;;7.70;6.82;;;22.20;71.70;;;;;;5031495;28;20048;-73
2022/06/27 08:02:59;;;;;;;7.40;6.70;;;22.20;71.50;;;;;;5034954;28;20426;-72
2022/06/27 08:05:24;;;;;;;9.27;7.93;;;22.20;71.40;;;;;;5027567;28;20043;-73
2022/06/27 08:07:50;;;;;;;7.97;7.18;;;22.20;71.40;;;;;;5014945;28;20072;-73
2022/06/27 08:10:16;;;;;;;11.23;8.80;;;22.20;71.40;;;;;;5027794;28;20049;-72
2022/06/27 08:12:42;;;;;;;8.57;7.60;;;22.20;71.40;;;;;;5013680;28;20730;-73
2022/06/27 08:15:09;;;;;;;8.35;7.55;;;22.20;71.40;;;;;;5030516;28;20692;-73
2022/06/27 08:17:34;;;;;;;12.82;8.82;;;22.20;71.40;;;;;;5038728;28;20042;-72
2022/06/27 08:20:00;;;;;;;12.13;9.65;;;22.20;71.40;;;;;;5036651;28;20045;-72
2022/06/27 08:22:25;;;;;;;12.02;9.70;;;22.20;71.50;;;;;;5035012;28;20033;-72
2022/06/27 08:24:51;;;;;;;10.27;9.27;;;22.10;71.70;;;;;;5024645;28;20033;-72
2022/06/27 08:27:17;;;;;;;8.73;7.93;;;22.00;72.00;;;;;;5015506;28;20520;-73
2022/06/27 08:29:43;;;;;;;9.60;8.32;;;22.00;72.20;;;;;;5022818;28;20103;-73
2022/06/27 08:32:09;;;;;;;9.10;8.20;;;22.00;72.30;;;;;;5054434;28;20495;-73
2022/06/27 08:34:35;;;;;;;8.88;8.07;;;22.00;72.30;;;;;;5029518;28;20111;-73
2022/06/27 08:37:01;;;;;;;12.75;8.65;;;22.00;72.30;;;;;;5036193;28;20636;-73
2022/06/27 08:39:28;;;;;;;7.88;7.07;;;22.00;72.40;;;;;;5050714;28;20148;-72
2022/06/27 08:41:53;;;;;;;7.40;6.53;;;22.10;72.50;;;;;;5036175;28;20059;-74
2022/06/27 08:44:19;;;;;;;10.80;7.05;;;22.10;72.30;;;;;;5039387;28;20401;-72
2022/06/27 08:46:47;;;;;;;8.75;7.85;;;22.10;72.30;;;;;;5009758;28;20044;-73
2022/06/27 08:49:14;;;;;;;8.90;8.00;;;22.10;72.30;;;;;;5035291;28;20122;-72
2022/06/27 08:51:39;;;;;;;8.18;7.28;;;22.10;72.50;;;;;;5053901;28;20096;-72
2022/06/27 08:54:06;;;;;;;9.98;7.50;;;22.10;72.60;;;;;;5040051;28;20049;-72
2022/06/27 08:56:32;;;;;;;9.70;7.00;;;22.10;72.60;;;;;;5019506;28;20029;-73
2022/06/27 08:59:00;;;;;;;7.78;6.25;;;22.20;72.70;;;;;;5036745;28;20066;-72
2022/06/27 09:01:27;;;;;;;8.15;7.35;;;22.20;72.60;;;;;;5038296;28;20040;-72
2022/06/27 09:04:00;;;;;;;7.00;6.30;;;22.20;72.70;;;;;;5022631;28;20076;-73
2022/06/27 09:06:33;;;;;;;6.93;5.90;;;22.20;72.70;;;;;;5016868;28;20922;-72
2022/06/27 09:09:08;;;;;;;8.10;6.68;;;22.30;72.40;;;;;;5019270;28;20045;-73
2022/06/27 09:11:35;;;;;;;9.10;7.35;;;22.40;72.50;;;;;;5036784;28;20043;-72
2022/06/27 09:14:02;;;;;;;10.57;6.80;;;22.40;72.40;;;;;;4997237;28;20716;-73
2022/06/27 09:16:27;;;;;;;7.72;6.82;;;22.40;72.30;;;;;;5051082;28;20640;-73
2022/06/27 09:18:55;;;;;;;6.95;6.25;;;22.40;72.40;;;;;;5015230;28;20032;-74
2022/06/27 09:21:21;;;;;;;6.53;5.93;;;22.40;72.50;;;;;;5020228;28;20384;-72
2022/06/27 09:23:47;;;;;;;7.10;6.28;;;22.40;72.50;;;;;;5036164;28;20025;-72
2022/06/27 09:26:18;;;;;;;6.15;5.65;;;22.60;72.50;;;;;;5038424;28;20614;-72
2022/06/27 09:28:50;;;;;;;5.13;4.72;;;22.70;72.20;;;;;;5051962;28;20072;-72
2022/06/27 09:31:28;;;;;;;5.95;5.45;;;22.80;71.80;;;;;;5035630;28;20064;-72
2022/06/27 09:34:14;;;;;;;5.40;4.90;;;23.00;71.70;;;;;;5045493;28;20051;-72
2022/06/27 09:36:51;;;;;;;4.60;4.20;;;23.20;71.20;;;;;;5025668;28;20643;-72
2022/06/27 09:39:30;;;;;;;4.60;4.20;;;23.30;70.80;;;;;;5034778;28;20637;-72
2022/06/27 09:42:02;;;;;;;4.13;3.78;;;23.30;70.40;;;;;;5011987;28;20105;-74
2022/06/27 09:44:38;;;;;;;4.13;3.78;;;23.40;70.20;;;;;;5037537;28;20060;-74
2022/06/27 09:47:11;;;;;;;4.22;3.83;;;23.40;70.00;;;;;;5037035;28;20098;-74
2022/06/27 09:49:38;;;;;;;4.95;4.53;;;23.40;69.80;;;;;;5028189;28;20032;-73
2022/06/27 09:52:17;;;;;;;4.50;4.10;;;23.50;69.60;;;;;;5031347;28;20172;-73
2022/06/27 09:54:44;;;;;;;4.53;4.13;;;23.40;69.40;;;;;;5007241;28;20036;-73
2022/06/27 09:57:10;;;;;;;5.25;4.85;;;23.40;69.40;;;;;;5035958;28;20039;-74
2022/06/27 09:59:36;;;;;;;4.40;4.00;;;23.50;69.40;;;;;;5020360;28;20057;-73
2022/06/27 10:02:02;;;;;;;5.60;4.10;;;23.50;69.30;;;;;;5044645;28;20040;-73
2022/06/27 10:04:29;;;;;;;4.60;4.20;;;23.50;69.30;;;;;;5035173;28;20112;-73
2022/06/27 10:06:58;;;;;;;4.25;3.95;;;23.50;69.30;;;;;;5021612;28;20562;-73
2022/06/27 10:09:25;;;;;;;6.95;4.05;;;23.50;69.10;;;;;;5037219;28;20029;-73
2022/06/27 10:12:31;;;;;;;3.88;3.58;;;23.50;69.00;;;;;;4999003;28;20030;-73
2022/06/27 10:15:14;;;;;;;5.47;3.75;;;23.50;69.00;;;;;;5004399;28;20044;-73
2022/06/27 10:17:46;;;;;;;3.70;3.40;;;23.50;68.90;;;;;;5048758;28;20520;-73
2022/06/27 10:20:36;;;;;;;3.67;3.38;;;23.50;68.70;;;;;;5033726;28;20264;-73
2022/06/27 10:23:14;;;;;;;4.10;3.17;;;23.60;69.70;;;;;;5016760;28;20044;-73
2022/06/27 10:25:46;;;;;;;4.32;3.05;;;23.60;68.60;;;;;;5044109;28;20037;-74
2022/06/27 10:28:12;;;;;;;2.88;2.67;;;23.70;68.50;;;;;;5047489;28;20030;-74
2022/06/27 10:30:51;;;;;;;2.63;2.42;;;23.70;68.20;;;;;;5037756;28;20127;-74
2022/06/27 10:33:25;;;;;;;2.85;2.65;;;23.70;68.10;;;;;;5050086;28;20036;-72
2022/06/27 10:35:54;;;;;;;2.60;2.40;;;23.60;68.10;;;;;;5036657;28;20120;-72
2022/06/27 10:38:23;;;;;;;2.92;2.63;;;23.60;68.00;;;;;;5034977;28;20060;-72
2022/06/27 10:40:49;;;;;;;3.70;2.70;;;23.60;68.00;;;;;;5003655;28;20515;-73
2022/06/27 10:43:36;;;;;;;2.50;2.30;;;23.60;68.00;;;;;;4966046;28;20041;-72
2022/06/27 10:46:05;;;;;;;2.55;2.35;;;23.60;67.90;;;;;;5035595;28;20059;-72
2022/06/27 10:48:35;;;;;;;3.17;2.00;;;23.60;67.80;;;;;;5037202;28;20649;-72
2022/06/27 10:51:22;;;;;;;2.70;2.50;;;23.70;67.80;;;;;;4987855;28;20071;-72
2022/06/27 10:53:51;;;;;;;2.63;2.42;;;23.70;67.80;;;;;;5016610;28;20045;-72
2022/06/27 10:56:26;;;;;;;3.15;2.33;;;23.80;67.70;;;;;;5025222;28;20436;-72
2022/06/27 10:58:52;;;;;;;2.40;2.20;;;23.90;67.60;;;;;;5034538;28;20532;-72
2022/06/27 11:01:18;;;;;;;2.15;2.03;;;24.00;67.40;;;;;;5017151;28;20037;-72
2022/06/27 11:03:44;;;;;;;2.33;2.13;;;24.00;67.10;;;;;;4995617;28;20117;-73
2022/06/27 11:06:13;;;;;;;3.67;2.17;;;24.10;67.00;;;;;;5019415;28;20123;-72
2022/06/27 11:08:39;;;;;;;2.25;2.05;;;24.20;66.90;;;;;;5015877;28;20033;-72
2022/06/27 11:11:05;;;;;;;2.10;2.00;;;24.20;66.70;;;;;;5025884;28;20115;-72
2022/06/27 11:13:47;;;;;;;2.03;1.80;;;24.30;67.50;;;;;;5019059;28;20045;-72
2022/06/27 11:16:22;;;;;;;3.80;2.00;;;24.50;66.50;;;;;;5018930;28;20028;-72
2022/06/27 11:19:01;;;;;;;2.75;2.00;;;24.60;66.10;;;;;;5008835;28;20653;-72
2022/06/27 11:21:28;;;;;;;2.05;1.85;;;24.90;65.50;;;;;;4998376;28;20059;-72
2022/06/27 11:24:05;;;;;;;1.70;1.60;;;25.00;65.20;;;;;;5017630;28;20529;-72
2022/06/27 11:26:32;;;;;;;1.40;1.30;;;25.20;64.70;;;;;;5020456;28;20040;-73
2022/06/27 11:32:05;;;;;;;1.40;1.30;;;25.60;64.30;;;;;;5003337;28;20053;-74
2022/06/27 11:34:33;;;;;;;1.20;1.10;;;25.80;63.00;;;;;;5026325;28;20697;-74
2022/06/27 11:37:00;;;;;;;1.85;1.38;;;25.90;63.30;;;;;;5006400;28;20737;-72
2022/06/27 11:39:27;;;;;;;3.90;2.10;;;26.10;63.10;;;;;;4994024;28;20045;-73
2022/06/27 11:42:00;;;;;;;1.27;1.17;;;26.20;62.80;;;;;;5014231;28;20660;-72
2022/06/27 11:44:26;;;;;;;1.38;1.27;;;26.40;62.30;;;;;;4969473;28;20034;-72
2022/06/27 11:46:52;;;;;;;2.20;1.30;;;26.50;62.10;;;;;;4983802;28;20057;-72
2022/06/27 11:49:27;;;;;;;1.65;1.50;;;26.60;61.80;;;;;;5002673;28;21335;-73
2022/06/27 11:51:57;;;;;;;1.48;1.05;;;26.60;61.50;;;;;;5014925;28;20060;-74
2022/06/27 11:54:23;;;;;;;1.47;1.03;;;26.70;60.90;;;;;;4994880;28;20514;-74
2022/06/27 11:56:49;;;;;;;2.35;1.00;;;26.70;60.60;;;;;;5001452;28;20288;-74
2022/06/27 11:59:16;;;;;;;1.65;1.00;;;26.80;60.60;;;;;;4992450;28;20034;-74
2022/06/27 12:02:01;;;;;;;1.80;1.20;;;26.80;60.30;;;;;;4964828;28;20034;-74
2022/06/27 12:04:30;;;;;;;1.33;1.17;;;27.00;59.80;;;;;;4987536;28;20060;-73
2022/06/27 12:07:06;;;;;;;2.08;1.00;;;27.10;59.80;;;;;;4964624;28;20044;-73
2022/06/27 12:09:51;;;;;;;1.25;1.08;;;27.20;59.40;;;;;;4990604;28;20044;-72
2022/06/27 12:12:18;;;;;;;0.95;0.95;;;27.30;59.10;;;;;;4968948;28;20545;-72
2022/06/27 12:14:45;;;;;;;1.60;1.10;;;27.30;59.10;;;;;;4989379;28;20071;-73
2022/06/27 12:17:10;;;;;;;2.50;1.10;;;27.40;58.90;;;;;;4991737;28;20025;-74
2022/06/27 12:19:36;;;;;;;2.58;1.10;;;27.40;58.60;;;;;;4983240;28;20022;-72
2022/06/27 12:22:01;;;;;;;1.30;1.20;;;27.40;58.50;;;;;;5005038;28;20109;-72
2022/06/27 12:24:27;;;;;;;5.30;1.10;;;27.40;58.30;;;;;;4989309;28;20094;-72
2022/06/27 12:26:52;;;;;;;0.90;0.90;;;27.50;58.40;;;;;;4986958;28;20632;-72
2022/06/27 12:29:18;;;;;;;1.20;1.10;;;27.40;58.10;;;;;;4983292;28;20104;-73
2022/06/27 12:31:44;;;;;;;1.10;1.10;;;27.50;58.10;;;;;;4961840;28;20029;-72
2022/06/27 12:34:09;;;;;;;3.10;0.90;;;27.50;58.00;;;;;;4994799;28;20046;-72
2022/06/27 12:36:36;;;;;;;1.88;1.33;;;27.70;57.90;;;;;;4998043;28;20041;-72
2022/06/27 12:39:02;;;;;;;1.90;0.95;;;27.80;57.70;;;;;;4986716;28;20121;-73
2022/06/27 12:41:27;;;;;;;1.00;0.90;;;27.90;57.40;;;;;;4999959;28;20101;-72
2022/06/27 12:43:53;;;;;;;8.98;1.10;;;28.00;57.20;;;;;;5015528;28;20547;-74
2022/06/27 12:46:18;;;;;;;1.40;1.10;;;28.10;57.10;;;;;;5021741;28;20053;-73
2022/06/27 12:48:44;;;;;;;1.85;1.02;;;28.20;56.80;;;;;;4994376;28;20505;-73
2022/06/27 12:51:10;;;;;;;5.45;1.13;;;28.30;56.50;;;;;;5016949;28;20069;-73
2022/06/27 12:53:35;;;;;;;1.95;0.90;;;28.40;56.20;;;;;;4985037;28;21277;-72
2022/06/27 12:56:02;;;;;;;2.10;1.08;;;28.40;55.90;;;;;;4997759;28;20036;-73